Time;durP1;ratioP1;P1;durP2;ratioP2;P2;SDS_P1;SDS_P2;PMS_P1;PMS_P2;Temp;Humidity;BMP_temperature;BMP_pressure;BME280_temperature;BME280_humidity;BME280_pressure;Samples;Min_cycle;Max_cycle;Signal;HPM_P1;HPM_P2
2022/11/29 00:01:53;;;;;;;13.48;8.08;;;5.80;97.20;;;;;;1905273;75;21198;-43
2022/11/29 00:04:22;;;;;;;13.83;8.40;;;5.80;97.20;;;;;;1905298;75;21166;-43
2022/11/29 00:06:51;;;;;;;15.25;8.30;;;5.80;97.10;;;;;;1905318;75;21198;-45
2022/11/29 00:09:20;;;;;;;19.23;12.28;;;5.90;97.10;;;;;;1905304;75;21079;-43
2022/11/29 00:14:36;;;;;;;17.48;8.58;;;5.80;97.10;;;;;;1905297;75;21194;-45
2022/11/29 00:17:05;;;;;;;16.67;11.28;;;5.80;97.10;;;;;;1905254;75;21138;-43
2022/11/29 00:19:36;;;;;;;8.70;6.28;;;5.80;97.10;;;;;;1905256;75;21637;-43
2022/11/29 00:22:05;;;;;;;18.00;8.90;;;5.80;97.20;;;;;;1905398;75;21212;-43
2022/11/29 00:24:35;;;;;;;18.12;11.83;;;5.80;97.20;;;;;;1905373;75;21202;-42
2022/11/29 00:27:04;;;;;;;22.55;14.25;;;5.80;97.20;;;;;;1905370;75;21146;-46
2022/11/29 00:29:34;;;;;;;10.55;7.50;;;5.80;97.30;;;;;;1905387;75;21273;-43
2022/11/29 00:32:04;;;;;;;16.67;9.65;;;5.80;97.30;;;;;;1905354;75;21186;-44
2022/11/29 00:34:33;;;;;;;19.57;11.30;;;5.70;97.30;;;;;;1905306;75;21090;-43
2022/11/29 00:37:03;;;;;;;9.73;6.42;;;5.80;97.40;;;;;;1905299;75;21163;-44
2022/11/29 00:39:32;;;;;;;17.27;10.75;;;5.70;97.40;;;;;;1905372;74;21146;-42
2022/11/29 00:42:01;;;;;;;18.27;10.63;;;5.70;97.40;;;;;;1905380;74;21087;-44
2022/11/29 00:44:30;;;;;;;16.30;10.28;;;5.70;97.40;;;;;;1905227;75;21250;-44
2022/11/29 00:46:59;;;;;;;26.73;14.15;;;5.80;97.40;;;;;;1905380;75;21182;-42
2022/11/29 00:49:28;;;;;;;18.02;9.50;;;5.70;97.40;;;;;;1905200;75;21185;-42
2022/11/29 00:51:58;;;;;;;21.17;12.68;;;5.80;97.40;;;;;;1905270;75;21131;-43
2022/11/29 00:54:28;;;;;;;15.65;8.68;;;5.80;97.40;;;;;;1914231;74;21102;-45
2022/11/29 00:56:57;;;;;;;19.57;10.68;;;5.80;97.40;;;;;;1924800;74;21179;-45
2022/11/29 00:59:26;;;;;;;23.45;13.50;;;5.80;97.30;;;;;;1924742;74;21265;-42
2022/11/29 01:01:55;;;;;;;25.72;14.50;;;5.80;97.30;;;;;;1924764;74;21066;-43
2022/11/29 01:04:24;;;;;;;13.98;9.35;;;5.80;97.40;;;;;;1924762;74;21185;-44
2022/11/29 01:06:53;;;;;;;22.73;12.07;;;5.80;97.30;;;;;;1924800;74;21062;-43
2022/11/29 01:09:22;;;;;;;21.12;12.65;;;5.80;97.30;;;;;;1924787;74;21616;-43
2022/11/29 01:11:51;;;;;;;21.82;12.70;;;5.80;97.30;;;;;;1924790;74;21197;-42
2022/11/29 01:14:20;;;;;;;20.27;10.88;;;5.80;97.30;;;;;;1924795;74;21297;-44
2022/11/29 01:16:49;;;;;;;24.57;12.85;;;5.90;97.30;;;;;;1924750;74;21177;-43
2022/11/29 01:19:19;;;;;;;16.15;10.13;;;5.90;97.30;;;;;;1924767;74;21098;-45
2022/11/29 01:21:48;;;;;;;24.00;14.13;;;5.90;97.30;;;;;;1924938;74;21070;-43
2022/11/29 01:24:17;;;;;;;23.73;13.00;;;5.90;97.30;;;;;;1924854;74;21185;-43
2022/11/29 01:26:46;;;;;;;20.82;12.93;;;5.80;97.30;;;;;;1924776;74;21070;-44
2022/11/29 01:29:15;;;;;;;21.30;11.97;;;5.80;97.30;;;;;;1924840;74;21241;-43
2022/11/29 01:31:44;;;;;;;21.42;11.88;;;5.90;97.30;;;;;;1924731;74;21138;-46
2022/11/29 01:34:14;;;;;;;24.10;12.25;;;5.90;97.40;;;;;;1924883;74;21209;-43
2022/11/29 01:36:43;;;;;;;16.17;9.88;;;5.80;97.40;;;;;;1924968;74;21114;-42
2022/11/29 01:39:12;;;;;;;22.50;12.25;;;5.90;97.40;;;;;;1924882;74;21106;-43
2022/11/29 01:41:41;;;;;;;21.65;13.40;;;5.90;97.50;;;;;;1924767;74;21299;-43
2022/11/29 01:44:16;;;;;;;11.73;8.08;;;5.90;97.40;;;;;;1924739;74;21315;-42
2022/11/29 01:46:48;;;;;;;14.03;8.48;;;5.90;97.40;;;;;;1924931;74;21308;-43
2022/11/29 01:49:22;;;;;;;23.62;12.53;;;5.90;97.40;;;;;;1924912;74;21109;-42
2022/11/29 01:51:54;;;;;;;22.22;13.20;;;6.00;97.40;;;;;;1924773;74;21623;-43
2022/11/29 01:54:23;;;;;;;22.27;12.75;;;6.00;97.30;;;;;;1920930;74;21700;-43
2022/11/29 01:56:53;;;;;;;16.90;10.82;;;6.00;97.20;;;;;;1905388;75;21307;-42
2022/11/29 01:59:24;;;;;;;18.07;11.12;;;6.00;97.40;;;;;;1905338;74;21202;-44
2022/11/29 02:01:55;;;;;;;18.25;11.53;;;6.00;97.40;;;;;;1905464;75;21628;-42
2022/11/29 02:04:24;;;;;;;12.03;8.08;;;6.00;97.30;;;;;;1905351;75;21126;-42
2022/11/29 02:06:53;;;;;;;12.20;6.60;;;6.00;97.40;;;;;;1905444;75;21193;-43
2022/11/29 02:09:23;;;;;;;16.73;8.58;;;6.00;97.30;;;;;;1905320;75;21313;-43
2022/11/29 02:12:10;;;;;;;11.55;8.03;;;6.00;97.30;;;;;;1905352;75;21257;-44
2022/11/29 02:14:51;;;;;;;17.05;10.43;;;6.00;97.30;;;;;;1905096;74;21466;-47
2022/11/29 02:17:38;;;;;;;18.50;11.03;;;6.00;97.30;;;;;;1905384;75;21151;-47
2022/11/29 02:20:13;;;;;;;15.93;8.25;;;6.00;97.30;;;;;;1905252;74;21307;-45
2022/11/29 02:22:48;;;;;;;23.02;13.88;;;6.00;97.30;;;;;;1904878;74;21145;-47
2022/11/29 02:25:31;;;;;;;16.93;10.35;;;6.00;97.30;;;;;;1905053;74;21063;-48
2022/11/29 02:28:38;;;;;;;19.75;11.68;;;6.00;97.30;;;;;;1904678;74;21553;-48
2022/11/29 02:31:44;;;;;;;23.15;13.13;;;6.00;97.30;;;;;;1904807;74;21063;-48
2022/11/29 02:34:22;;;;;;;18.20;10.43;;;6.00;97.30;;;;;;1904239;74;21202;-46
2022/11/29 02:37:25;;;;;;;12.23;8.08;;;6.00;97.30;;;;;;1904336;74;21198;-44
2022/11/29 02:40:02;;;;;;;20.50;10.80;;;6.00;97.30;;;;;;1904409;74;21300;-49
2022/11/29 02:42:47;;;;;;;16.20;9.93;;;6.00;97.40;;;;;;1904330;74;21648;-45
2022/11/29 02:45:13;;;;;;;16.10;10.48;;;5.90;97.40;;;;;;1904467;74;21305;-44
2022/11/29 02:47:47;;;;;;;22.65;10.78;;;5.90;97.50;;;;;;1905214;75;21274;-46
2022/11/29 02:50:23;;;;;;;;;;;5.90;97.70;;;;;;1907991;74;21166;-48
2022/11/29 02:53:09;;;;;;;11.70;4.83;;;5.90;97.50;;;;;;1905202;75;20703;-45
2022/11/29 02:56:04;;;;;;;16.52;9.30;;;5.90;97.50;;;;;;1905323;75;21256;-47
2022/11/29 02:58:45;;;;;;;16.60;9.33;;;5.90;97.50;;;;;;1905398;75;21274;-44
2022/11/29 03:01:22;;;;;;;17.02;8.38;;;5.90;97.60;;;;;;1905461;74;21206;-43
2022/11/29 03:04:09;;;;;;;18.37;10.18;;;5.90;97.60;;;;;;1905219;75;21103;-44
2022/11/29 03:06:56;;;;;;;12.13;7.40;;;5.90;97.60;;;;;;1895400;74;21024;-45
2022/11/29 03:09:41;;;;;;;21.60;11.68;;;5.90;97.60;;;;;;1905283;75;21538;-46
2022/11/29 03:12:19;;;;;;;21.48;12.15;;;5.80;97.60;;;;;;1905263;74;21258;-44
2022/11/29 03:15:07;;;;;;;18.62;12.18;;;5.90;97.60;;;;;;1905148;74;21138;-48
2022/11/29 03:17:44;;;;;;;20.17;11.97;;;5.80;97.50;;;;;;1905191;75;21645;-46
2022/11/29 03:20:45;;;;;;;15.28;10.00;;;5.90;97.60;;;;;;1892883;75;21312;-46
2022/11/29 03:23:26;;;;;;;13.80;8.70;;;5.90;97.60;;;;;;1905224;75;21201;-46
2022/11/29 03:26:00;;;;;;;14.30;8.98;;;5.90;97.50;;;;;;1905271;75;21217;-43
2022/11/29 03:28:32;;;;;;;13.03;8.18;;;5.80;97.60;;;;;;1905200;74;21194;-45
2022/11/29 03:31:07;;;;;;;11.03;6.12;;;5.80;97.60;;;;;;1905179;75;21567;-45
2022/11/29 03:33:39;;;;;;;15.10;8.90;;;5.80;97.70;;;;;;1905319;75;21228;-43
2022/11/29 03:36:11;;;;;;;13.28;7.92;;;5.80;97.70;;;;;;1904813;74;21485;-45
2022/11/29 03:38:47;;;;;;;15.70;10.23;;;5.80;97.60;;;;;;1905151;74;21158;-47
2022/11/29 03:41:19;;;;;;;14.33;7.62;;;5.80;97.60;;;;;;1905257;75;21343;-44
2022/11/29 03:44:10;;;;;;;16.82;9.95;;;5.80;97.60;;;;;;1905055;74;21051;-44
2022/11/29 03:46:54;;;;;;;17.75;8.83;;;5.80;97.60;;;;;;1905142;74;21337;-45
2022/11/29 03:49:47;;;;;;;15.00;7.42;;;5.80;97.50;;;;;;1905241;74;21283;-45
2022/11/29 03:52:30;;;;;;;19.30;9.90;;;5.80;97.50;;;;;;1905086;74;21577;-48
2022/11/29 03:55:36;;;;;;;11.55;7.17;;;5.80;97.50;;;;;;1905551;74;21170;-44
2022/11/29 03:58:13;;;;;;;17.98;9.83;;;5.90;97.50;;;;;;1924818;74;21277;-44
2022/11/29 04:00:51;;;;;;;12.68;7.62;;;5.90;97.50;;;;;;1887302;76;21177;-42
2022/11/29 04:03:32;;;;;;;13.50;8.68;;;5.90;97.50;;;;;;1877986;76;21123;-43
2022/11/29 04:06:13;;;;;;;17.92;10.25;;;5.90;97.50;;;;;;1878000;76;21179;-44
2022/11/29 04:08:47;;;;;;;13.13;8.08;;;5.90;97.50;;;;;;1773737;77;21189;-43
2022/11/29 04:11:54;;;;;;;12.93;8.50;;;5.90;97.40;;;;;;1877940;76;21306;-43
2022/11/29 04:15:01;;;;;;;11.20;8.33;;;5.90;97.40;;;;;;1877898;76;21119;-44
2022/11/29 04:17:38;;;;;;;11.70;6.60;;;5.90;97.50;;;;;;1877885;76;21123;-44
2022/11/29 04:20:19;;;;;;;18.60;10.80;;;5.80;97.50;;;;;;1868837;76;21205;-43
2022/11/29 04:23:17;;;;;;;15.35;9.23;;;5.80;97.50;;;;;;1814810;77;21216;-43
2022/11/29 04:25:58;;;;;;;12.82;7.00;;;5.80;97.50;;;;;;1878060;76;21054;-45
2022/11/29 04:28:41;;;;;;;14.15;7.70;;;5.80;97.50;;;;;;1877880;76;21284;-43
2022/11/29 04:31:19;;;;;;;17.70;7.85;;;5.80;97.40;;;;;;1876836;76;21119;-45
2022/11/29 04:34:10;;;;;;;20.77;8.70;;;5.80;97.50;;;;;;1876151;76;21662;-43
2022/11/29 04:36:42;;;;;;;15.10;8.75;;;5.80;97.50;;;;;;1862283;76;21608;-46
2022/11/29 04:39:29;;;;;;;13.28;9.10;;;5.80;97.50;;;;;;1876134;76;21160;-46
2022/11/29 04:42:16;;;;;;;13.18;7.53;;;5.70;97.50;;;;;;1878069;76;21422;-45
2022/11/29 04:45:10;;;;;;;13.03;7.00;;;5.80;97.50;;;;;;1876320;76;21238;-44
2022/11/29 04:47:45;;;;;;;12.13;6.87;;;5.70;97.50;;;;;;1876077;76;21177;-43
2022/11/29 04:50:22;;;;;;;18.02;9.45;;;5.70;97.50;;;;;;1878162;76;21790;-44
2022/11/29 04:52:55;;;;;;;16.12;9.23;;;5.70;97.50;;;;;;1845395;76;21229;-44
2022/11/29 04:56:01;;;;;;;17.30;9.68;;;5.70;97.50;;;;;;1875416;76;21222;-43
2022/11/29 04:58:45;;;;;;;9.38;5.35;;;5.70;97.40;;;;;;1877994;76;21367;-46
2022/11/29 05:01:37;;;;;;;16.02;7.35;;;5.70;97.40;;;;;;1873972;76;21721;-43
2022/11/29 05:04:08;;;;;;;24.32;13.93;;;5.60;97.70;;;;;;1877496;76;21736;-44
2022/11/29 05:07:09;;;;;;;11.40;6.60;;;5.60;97.50;;;;;;1875913;76;21046;-43
2022/11/29 05:10:01;;;;;;;10.80;5.58;;;5.60;97.70;;;;;;1877887;76;21800;-45
2022/11/29 05:12:48;;;;;;;11.55;5.65;;;5.60;97.40;;;;;;1877315;76;21787;-46
2022/11/29 05:15:23;;;;;;;19.25;9.18;;;5.50;97.50;;;;;;1878074;76;21188;-42
2022/11/29 05:18:12;;;;;;;12.88;6.72;;;5.60;97.60;;;;;;1878164;76;21168;-45
2022/11/29 05:20:53;;;;;;;9.08;6.65;;;5.50;97.60;;;;;;1876944;76;21230;-45
2022/11/29 05:23:40;;;;;;;6.30;4.67;;;5.60;97.60;;;;;;1877234;76;21262;-43
2022/11/29 05:26:24;;;;;;;13.43;8.15;;;5.60;97.60;;;;;;1876805;76;21250;-43
2022/11/29 05:29:05;;;;;;;10.15;5.67;;;5.50;97.50;;;;;;1877383;76;21749;-44
2022/11/29 05:31:43;;;;;;;13.48;7.78;;;5.60;97.50;;;;;;1877907;76;21205;-43
2022/11/29 05:34:15;;;;;;;40.98;9.83;;;5.50;97.60;;;;;;1876805;76;21311;-43
2022/11/29 05:37:11;;;;;;;10.03;7.10;;;5.50;97.60;;;;;;1876949;76;21188;-44
2022/11/29 05:39:51;;;;;;;11.40;5.78;;;5.50;97.60;;;;;;1877935;76;21063;-44
2022/11/29 05:42:30;;;;;;;14.07;6.67;;;5.50;97.60;;;;;;1878055;76;21116;-43
2022/11/29 05:45:05;;;;;;;8.00;4.97;;;5.50;97.70;;;;;;1866896;76;21155;-44
2022/11/29 05:47:42;;;;;;;9.03;7.20;;;5.50;97.70;;;;;;1877921;76;21111;-47
2022/11/29 05:50:32;;;;;;;12.40;7.50;;;5.50;97.70;;;;;;1876747;76;21371;-44
2022/11/29 05:53:11;;;;;;;12.30;7.17;;;5.50;97.70;;;;;;1876809;76;21102;-48
2022/11/29 05:55:46;;;;;;;12.45;8.05;;;5.50;97.80;;;;;;1845273;76;21103;-44
2022/11/29 05:58:24;;;;;;;8.63;5.78;;;5.50;97.80;;;;;;1871044;76;21651;-44
2022/11/29 06:01:08;;;;;;;16.93;8.93;;;5.60;97.80;;;;;;1862127;77;21349;-43
2022/11/29 06:03:40;;;;;;;10.43;5.90;;;5.50;97.80;;;;;;1870123;77;21256;-42
2022/11/29 06:06:15;;;;;;;12.68;7.80;;;5.60;97.80;;;;;;1871140;77;21591;-43
2022/11/29 06:08:47;;;;;;;11.33;6.45;;;5.60;97.80;;;;;;1871317;77;21172;-45
2022/11/29 06:11:22;;;;;;;16.40;9.18;;;5.60;97.70;;;;;;1835798;77;21623;-43
2022/11/29 06:13:56;;;;;;;11.90;7.92;;;5.60;97.80;;;;;;1871302;77;21859;-43
2022/11/29 06:16:40;;;;;;;12.60;6.87;;;5.60;97.70;;;;;;1871314;76;21124;-42
2022/11/29 06:19:41;;;;;;;14.03;8.58;;;5.60;97.70;;;;;;1871195;77;21217;-43
2022/11/29 06:22:19;;;;;;;17.25;10.05;;;5.60;97.70;;;;;;1870626;77;21209;-46
2022/11/29 06:25:06;;;;;;;18.60;8.15;;;5.60;97.70;;;;;;1871052;76;21275;-43
2022/11/29 06:27:50;;;;;;;5.95;3.90;;;5.60;97.70;;;;;;1871192;77;21234;-43
2022/11/29 06:30:22;;;;;;;17.75;8.75;;;5.70;97.70;;;;;;1870589;77;21079;-43
2022/11/29 06:33:00;;;;;;;15.43;9.83;;;5.70;97.80;;;;;;1871248;77;21571;-43
2022/11/29 06:35:49;;;;;;;11.53;7.72;;;5.70;97.80;;;;;;1871305;77;21180;-45
2022/11/29 06:38:31;;;;;;;18.17;9.60;;;5.70;97.70;;;;;;1863509;77;21647;-43
2022/11/29 06:41:00;;;;;;;14.25;7.92;;;5.80;97.70;;;;;;1871367;77;21164;-44
2022/11/29 06:43:30;;;;;;;17.23;8.13;;;5.80;97.60;;;;;;1871289;76;21356;-43
2022/11/29 06:46:07;;;;;;;13.70;8.30;;;5.80;97.50;;;;;;1871195;76;21156;-44
2022/11/29 06:48:39;;;;;;;23.22;10.93;;;5.80;97.50;;;;;;1870356;77;21246;-43
2022/11/29 06:51:27;;;;;;;15.60;9.03;;;5.90;97.60;;;;;;1870683;77;21308;-45
2022/11/29 06:54:04;;;;;;;21.95;10.20;;;5.90;97.50;;;;;;1870582;77;21793;-48
2022/11/29 06:56:42;;;;;;;9.93;6.70;;;5.90;97.70;;;;;;1871180;77;21689;-47
2022/11/29 06:59:34;;;;;;;21.50;12.40;;;5.90;97.30;;;;;;1871348;77;21120;-46
2022/11/29 07:02:25;;;;;;;19.37;10.78;;;5.90;97.20;;;;;;1870650;77;21149;-47
2022/11/29 07:05:02;;;;;;;15.10;10.23;;;5.90;97.20;;;;;;1871211;76;21107;-50
2022/11/29 07:07:34;;;;;;;13.15;8.33;;;5.90;97.20;;;;;;1871167;77;21148;-49
2022/11/29 07:10:05;;;;;;;11.40;8.15;;;5.90;97.00;;;;;;1871245;76;21186;-48
2022/11/29 07:12:34;;;;;;;11.88;6.60;;;5.80;97.00;;;;;;1839509;77;21229;-46
2022/11/29 07:15:04;;;;;;;11.40;7.33;;;5.80;97.10;;;;;;1870929;76;21403;-46
2022/11/29 07:17:39;;;;;;;12.98;6.55;;;5.80;97.10;;;;;;1870985;77;21217;-46
2022/11/29 07:20:22;;;;;;;14.18;10.10;;;5.80;97.10;;;;;;1870712;77;21590;-45
2022/11/29 07:23:03;;;;;;;7.62;4.70;;;5.80;97.10;;;;;;1830204;78;21151;-43
2022/11/29 07:25:38;;;;;;;8.38;5.15;;;5.80;97.60;;;;;;1844511;77;21721;-47
2022/11/29 07:28:21;;;;;;;13.15;8.55;;;5.80;97.20;;;;;;1840684;78;21184;-45
2022/11/29 07:31:12;;;;;;;8.30;5.67;;;5.70;97.10;;;;;;1838888;78;21129;-43
2022/11/29 07:34:03;;;;;;;18.95;9.73;;;5.70;97.10;;;;;;1845972;77;21155;-45
2022/11/29 07:36:50;;;;;;;12.13;8.43;;;5.60;97.20;;;;;;1855290;77;21107;-44
2022/11/29 07:39:21;;;;;;;9.28;5.47;;;5.70;97.20;;;;;;1854703;77;21347;-43
2022/11/29 07:42:08;;;;;;;9.20;5.90;;;5.60;97.30;;;;;;1852176;77;21651;-44
2022/11/29 07:44:43;;;;;;;11.43;7.72;;;5.60;97.10;;;;;;1850621;77;21358;-44
2022/11/29 07:47:12;;;;;;;19.27;11.78;;;5.60;97.00;;;;;;1824100;77;21179;-46
2022/11/29 07:49:41;;;;;;;11.28;7.42;;;5.60;97.00;;;;;;1851300;77;21265;-44
2022/11/29 07:52:13;;;;;;;16.07;9.43;;;5.60;97.10;;;;;;1844131;77;21258;-45
2022/11/29 07:54:42;;;;;;;14.93;9.98;;;5.50;97.10;;;;;;1840366;78;21165;-48
2022/11/29 07:57:10;;;;;;;14.45;8.53;;;5.60;97.40;;;;;;1838932;78;21194;-46
2022/11/29 07:59:40;;;;;;;15.08;9.15;;;5.60;97.20;;;;;;1828960;78;21260;-45
2022/11/29 08:02:10;;;;;;;11.53;7.75;;;5.60;97.20;;;;;;1828686;78;21194;-45
2022/11/29 08:04:46;;;;;;;16.73;8.88;;;5.70;97.00;;;;;;1838704;77;21217;-44
2022/11/29 08:07:15;;;;;;;14.98;9.00;;;5.70;97.00;;;;;;1857352;77;21238;-46
2022/11/29 08:09:44;;;;;;;15.35;6.47;;;5.70;97.00;;;;;;1857571;77;21137;-48
2022/11/29 08:12:13;;;;;;;11.38;7.40;;;5.70;96.90;;;;;;1857342;77;21152;-45
2022/11/29 08:14:42;;;;;;;14.65;9.30;;;5.70;96.80;;;;;;1857550;77;21189;-46
2022/11/29 08:17:12;;;;;;;14.60;9.35;;;5.70;96.80;;;;;;1856142;77;21357;-50
2022/11/29 08:19:41;;;;;;;11.93;7.95;;;5.70;96.80;;;;;;1839277;77;21283;-49
2022/11/29 08:22:10;;;;;;;13.50;7.85;;;5.70;96.80;;;;;;1828145;78;21192;-47
2022/11/29 08:24:39;;;;;;;14.45;8.30;;;5.70;96.90;;;;;;1828132;78;21319;-49
2022/11/29 08:27:08;;;;;;;16.65;9.50;;;5.70;96.70;;;;;;1832558;77;21253;-49
2022/11/29 08:29:38;;;;;;;12.20;7.80;;;5.70;96.80;;;;;;1832078;77;21148;-47
2022/11/29 08:32:07;;;;;;;12.33;7.40;;;5.80;96.70;;;;;;1829146;76;21188;-45
2022/11/29 08:34:37;;;;;;;9.18;6.47;;;5.80;96.90;;;;;;1843357;76;21146;-46
2022/11/29 08:37:06;;;;;;;10.88;5.83;;;5.80;96.70;;;;;;1832307;77;21201;-46
2022/11/29 08:39:35;;;;;;;12.85;8.05;;;5.80;96.60;;;;;;1830388;77;21232;-47
2022/11/29 08:42:05;;;;;;;14.35;8.93;;;5.80;96.80;;;;;;1842165;76;21228;-45
2022/11/29 08:44:33;;;;;;;16.25;9.13;;;5.80;96.60;;;;;;1849232;76;21213;-47
2022/11/29 08:50:02;;;;;;;15.25;8.13;;;5.90;96.70;;;;;;1852555;77;21159;-48
2022/11/29 08:55:23;;;;;;;8.08;5.17;;;5.90;96.50;;;;;;1856627;77;21238;-45
2022/11/29 08:57:53;;;;;;;12.58;8.93;;;6.00;96.60;;;;;;1862808;75;21113;-45
2022/11/29 09:00:22;;;;;;;11.70;6.83;;;6.00;96.50;;;;;;1899888;75;21369;-45
2022/11/29 09:02:52;;;;;;;8.40;4.28;;;6.00;96.40;;;;;;1899570;75;21170;-44
2022/11/29 09:05:21;;;;;;;7.83;4.25;;;6.00;96.10;;;;;;1899740;75;21135;-44
2022/11/29 09:07:50;;;;;;;11.48;7.50;;;6.00;96.30;;;;;;1899637;75;21134;-42
2022/11/29 09:10:19;;;;;;;10.40;7.08;;;6.00;96.40;;;;;;1875431;75;21269;-44
2022/11/29 09:12:50;;;;;;;13.28;6.35;;;6.00;96.40;;;;;;1864069;77;21282;-43
2022/11/29 09:15:19;;;;;;;12.98;7.78;;;6.00;96.50;;;;;;1863917;77;21097;-43
2022/11/29 09:17:47;;;;;;;12.95;7.00;;;6.00;96.60;;;;;;1863918;77;21605;-43
2022/11/29 09:20:17;;;;;;;12.28;7.33;;;6.10;96.60;;;;;;1863939;77;21140;-43
2022/11/29 09:22:46;;;;;;;13.53;7.70;;;6.10;96.50;;;;;;1863924;77;21227;-44
2022/11/29 09:25:15;;;;;;;12.15;7.62;;;6.10;96.30;;;;;;1864067;77;21207;-45
2022/11/29 09:27:44;;;;;;;17.70;8.50;;;6.20;96.50;;;;;;1864115;77;21099;-44
2022/11/29 09:30:13;;;;;;;13.58;7.87;;;6.20;96.50;;;;;;1863895;77;21115;-44
2022/11/29 09:32:43;;;;;;;14.98;8.13;;;6.30;96.50;;;;;;1892536;75;21115;-44
2022/11/29 09:35:12;;;;;;;7.65;5.97;;;6.30;96.40;;;;;;1899709;75;21217;-46
2022/11/29 09:37:42;;;;;;;11.40;5.62;;;6.30;95.90;;;;;;1875564;75;21166;-44
2022/11/29 09:40:23;;;;;;;11.03;6.10;;;6.30;95.90;;;;;;1877296;75;21213;-44
2022/11/29 09:42:57;;;;;;;9.48;5.87;;;6.40;96.00;;;;;;1871631;75;21050;-44
2022/11/29 09:45:32;;;;;;;8.38;5.70;;;6.40;96.00;;;;;;1872418;75;21127;-45
2022/11/29 09:48:05;;;;;;;;;;;6.50;95.90;;;;;;1873055;75;21113;-46
2022/11/29 09:50:41;;;;;;;7.08;4.42;;;6.50;95.70;;;;;;1876416;75;20633;-44
2022/11/29 09:53:28;;;;;;;8.53;5.75;;;6.50;95.50;;;;;;1880585;75;21606;-47
2022/11/29 09:56:12;;;;;;;5.97;5.15;;;6.60;95.50;;;;;;1875894;75;21320;-43
2022/11/29 09:58:53;;;;;;;9.50;6.35;;;6.60;95.70;;;;;;1855379;75;21241;-42
2022/11/29 10:01:36;;;;;;;8.53;6.20;;;6.60;95.20;;;;;;1867411;76;21469;-43
2022/11/29 10:04:08;;;;;;;10.82;5.78;;;6.60;95.20;;;;;;1862364;76;21158;-43
2022/11/29 10:06:40;;;;;;;7.92;5.97;;;6.60;95.20;;;;;;1855559;76;21222;-43
2022/11/29 10:09:24;;;;;;;7.05;5.08;;;6.60;95.30;;;;;;1868872;76;21078;-44
2022/11/29 10:12:23;;;;;;;13.28;6.25;;;6.60;95.20;;;;;;1868035;76;21071;-43
2022/11/29 10:15:00;;;;;;;5.10;3.87;;;6.60;95.30;;;;;;1861497;76;21114;-44
2022/11/29 10:17:38;;;;;;;9.13;5.25;;;6.70;95.60;;;;;;1862960;76;21141;-45
2022/11/29 10:20:12;;;;;;;8.38;6.12;;;6.70;95.20;;;;;;1872523;76;21118;-43
2022/11/29 10:22:44;;;;;;;4.75;4.25;;;6.70;95.00;;;;;;1866483;76;21096;-44
2022/11/29 10:25:18;;;;;;;10.50;5.33;;;6.70;94.70;;;;;;1857862;76;21083;-45
2022/11/29 10:27:48;;;;;;;11.38;6.20;;;6.70;94.60;;;;;;1848320;77;21149;-44
2022/11/29 10:30:17;;;;;;;10.13;6.60;;;6.60;94.50;;;;;;1848308;77;21262;-42
2022/11/29 10:32:49;;;;;;;8.48;5.40;;;6.60;94.80;;;;;;1870752;76;21272;-45
2022/11/29 10:35:20;;;;;;;7.72;4.83;;;6.60;94.80;;;;;;1886834;76;21235;-44
2022/11/29 10:37:52;;;;;;;8.60;6.22;;;6.60;94.80;;;;;;1876510;76;21131;-44
2022/11/29 10:40:24;;;;;;;5.87;4.50;;;6.60;94.70;;;;;;1871458;76;21218;-45
2022/11/29 10:42:53;;;;;;;6.72;4.37;;;6.60;94.90;;;;;;1886477;76;21501;-43
2022/11/29 10:45:40;;;;;;;8.35;5.75;;;6.60;94.60;;;;;;1878797;76;21147;-43
2022/11/29 10:48:12;;;;;;;5.30;4.05;;;6.60;95.00;;;;;;1881215;76;21563;-44
2022/11/29 10:50:43;;;;;;;7.03;5.37;;;6.70;94.90;;;;;;1885543;76;21167;-46
2022/11/29 10:53:14;;;;;;;5.95;4.15;;;6.70;94.80;;;;;;1886247;76;21058;-45
2022/11/29 10:56:10;;;;;;;8.95;5.87;;;6.70;94.90;;;;;;1851064;76;21080;-45
2022/11/29 11:05:02;;;;;;;13.75;9.18;;;6.80;94.40;;;;;;1972950;73;25829;-45
2022/11/29 11:09:41;;;;;;;4.47;3.42;;;6.80;93.90;;;;;;1957776;73;25490;-48
2022/11/29 11:12:19;;;;;;;7.62;4.20;;;6.80;94.40;;;;;;1905194;75;21520;-49
2022/11/29 11:14:50;;;;;;;6.85;5.45;;;6.80;94.30;;;;;;1917738;74;21069;-47
2022/11/29 11:17:30;;;;;;;8.05;4.53;;;6.80;94.20;;;;;;1917811;75;21130;-45
2022/11/29 11:20:04;;;;;;;7.35;4.60;;;6.80;94.20;;;;;;1917549;74;21023;-48
2022/11/29 11:22:34;;;;;;;7.87;5.62;;;6.90;94.20;;;;;;1917647;75;21132;-48
2022/11/29 11:25:09;;;;;;;6.05;4.53;;;6.80;94.40;;;;;;1917692;75;21082;-46
2022/11/29 11:27:39;;;;;;;10.32;5.78;;;6.90;94.10;;;;;;1912436;74;21541;-48
2022/11/29 11:30:26;;;;;;;5.97;3.98;;;6.90;94.20;;;;;;1917690;74;21110;-46
2022/11/29 11:33:10;;;;;;;5.97;4.67;;;6.90;93.90;;;;;;1898367;75;21014;-45
2022/11/29 11:35:39;;;;;;;7.00;5.30;;;6.90;93.90;;;;;;1908965;75;21066;-43
2022/11/29 11:38:16;;;;;;;4.87;4.28;;;6.90;94.00;;;;;;1917784;75;21450;-44
2022/11/29 11:40:45;;;;;;;7.65;4.60;;;6.90;94.00;;;;;;1917744;75;21027;-43
2022/11/29 11:43:20;;;;;;;5.85;4.45;;;6.90;93.90;;;;;;1917605;75;21023;-43
2022/11/29 11:45:54;;;;;;;6.90;4.45;;;6.90;93.80;;;;;;1917830;75;21140;-44
2022/11/29 11:48:23;;;;;;;4.22;3.52;;;6.90;93.80;;;;;;1917640;75;21077;-45
2022/11/29 11:51:00;;;;;;;7.35;4.67;;;6.90;93.40;;;;;;1917463;75;21168;-45
2022/11/29 11:53:35;;;;;;;5.97;5.17;;;6.90;93.80;;;;;;1917708;75;21496;-48
2022/11/29 11:56:04;;;;;;;;;;;6.90;94.10;;;;;;1920301;75;21129;-49
2022/11/29 11:58:36;;;;;;;7.17;4.67;;;7.00;94.00;;;;;;1917605;75;20109;-49
2022/11/29 12:01:31;;;;;;;5.12;4.05;;;7.00;94.00;;;;;;1909045;75;22202;-43
2022/11/29 12:04:21;;;;;;;5.70;4.78;;;7.00;94.00;;;;;;1917285;74;21011;-46
2022/11/29 12:07:03;;;;;;;3.15;2.80;;;7.00;93.90;;;;;;1917733;75;21100;-46
2022/11/29 12:09:59;;;;;;;7.28;5.53;;;7.10;93.80;;;;;;1908126;74;21090;-45
2022/11/29 12:12:33;;;;;;;5.60;4.28;;;7.00;93.80;;;;;;1904967;74;21069;-45
2022/11/29 12:15:06;;;;;;;;;;;7.10;93.90;;;;;;1908146;75;21094;-48
2022/11/29 12:17:43;;;;;;;5.62;3.50;;;7.10;93.70;;;;;;1905123;75;20113;-46
2022/11/29 12:20:47;;;;;;;2.27;2.00;;;7.10;93.80;;;;;;1904692;74;21079;-45
2022/11/29 12:23:30;;;;;;;3.60;2.37;;;7.10;93.60;;;;;;1904735;75;21033;-44
2022/11/29 12:26:06;;;;;;;3.83;3.15;;;7.10;93.70;;;;;;1904466;75;21208;-45
2022/11/29 12:28:40;;;;;;;5.30;4.08;;;7.10;93.70;;;;;;1904786;75;21043;-46
2022/11/29 12:31:24;;;;;;;4.33;3.45;;;7.10;93.90;;;;;;1904726;75;21067;-45
2022/11/29 12:34:30;;;;;;;4.50;3.33;;;7.10;93.80;;;;;;1904518;75;21466;-44
2022/11/29 12:37:08;;;;;;;8.60;4.47;;;7.10;93.90;;;;;;1904444;74;21146;-45
2022/11/29 12:39:41;;;;;;;7.10;3.58;;;7.10;94.00;;;;;;1870806;74;21062;-47
2022/11/29 12:42:18;;;;;;;7.03;4.33;;;7.10;94.10;;;;;;1904136;74;21164;-45
2022/11/29 12:45:02;;;;;;;4.83;3.72;;;7.20;94.10;;;;;;1904659;75;21067;-47
2022/11/29 12:47:52;;;;;;;5.25;4.30;;;7.20;93.90;;;;;;1904470;74;21055;-44
2022/11/29 12:50:24;;;;;;;5.55;3.67;;;7.20;93.90;;;;;;1904418;74;21189;-44
2022/11/29 12:58:39;;;;;;;6.75;3.02;;;7.10;93.50;;;;;;1959088;73;25810;-43
2022/11/29 13:01:26;;;;;;;5.17;2.47;;;7.20;93.90;;;;;;1918464;74;21108;-45
2022/11/29 13:04:07;;;;;;;4.05;2.72;;;7.10;93.30;;;;;;1917947;74;21015;-47
2022/11/29 13:06:51;;;;;;;5.85;3.60;;;7.20;93.50;;;;;;1918555;74;21164;-43
2022/11/29 13:09:29;;;;;;;4.35;3.15;;;7.10;93.60;;;;;;1909145;75;21047;-43
2022/11/29 13:12:03;;;;;;;4.95;4.10;;;7.20;93.60;;;;;;1903165;74;21517;-45
2022/11/29 13:14:36;;;;;;;;;;;7.10;93.70;;;;;;1921390;74;21223;-42
2022/11/29 13:17:08;;;;;;;4.17;3.70;;;7.20;93.40;;;;;;1918222;74;20089;-43
2022/11/29 13:19:55;;;;;;;7.30;4.45;;;7.20;93.60;;;;;;1917594;74;21539;-43
